createdAt,value
2023-02-23T00:02:09.581Z,41.80
2023-02-23T00:04:38.511Z,38.90
2023-02-23T00:07:07.062Z,40.20
2023-02-23T00:09:38.001Z,35.70
2023-02-23T00:12:10.375Z,38.20
2023-02-23T00:14:39.205Z,34.50
2023-02-23T00:17:15.070Z,35.30
2023-02-23T00:19:44.086Z,34.70
2023-02-23T00:22:13.004Z,34.00
2023-02-23T00:24:43.101Z,35.70
2023-02-23T00:27:17.964Z,35.60
2023-02-23T00:29:50.573Z,34.60
2023-02-23T00:32:20.211Z,37.60
2023-02-23T00:34:52.266Z,33.20
2023-02-23T00:37:23.325Z,33.00
2023-02-23T00:39:53.281Z,31.10
2023-02-23T00:42:22.167Z,32.00
2023-02-23T00:44:51.117Z,32.70
2023-02-23T00:47:19.407Z,36.70
2023-02-23T00:49:50.710Z,35.70
2023-02-23T00:52:20.354Z,38.80
2023-02-23T00:54:48.587Z,37.20
2023-02-23T00:57:16.895Z,36.30
2023-02-23T00:59:44.870Z,35.40
2023-02-23T01:02:13.015Z,31.70
2023-02-23T01:04:41.576Z,26.30
2023-02-23T01:07:13.052Z,31.30
2023-02-23T01:09:41.370Z,27.20
2023-02-23T01:12:09.908Z,28.80
2023-02-23T01:14:41.822Z,27.20
2023-02-23T01:17:19.551Z,28.30
2023-02-23T01:19:51.166Z,26.40
2023-02-23T01:22:21.961Z,26.00
2023-02-23T01:24:50.872Z,30.50
2023-02-23T01:27:22.954Z,24.00
2023-02-23T01:29:55.065Z,25.60
2023-02-23T01:32:23.452Z,26.80
2023-02-23T01:34:51.494Z,21.60
2023-02-23T01:37:19.810Z,26.20
2023-02-23T01:39:47.881Z,25.50
2023-02-23T01:42:16.487Z,27.50
2023-02-23T01:44:48.117Z,28.00
2023-02-23T01:47:17.754Z,33.70
2023-02-23T01:49:47.369Z,27.20
2023-02-23T01:52:19.834Z,28.80
2023-02-23T01:54:55.343Z,29.60
2023-02-23T01:59:56.255Z,27.10
2023-02-23T02:02:33.966Z,21.90
2023-02-23T02:05:08.428Z,23.60
2023-02-23T02:07:39.854Z,22.90
2023-02-23T02:10:12.250Z,23.00
2023-02-23T02:12:55.389Z,23.90
2023-02-23T02:15:34.222Z,20.80
2023-02-23T02:18:27.384Z,22.50
2023-02-23T02:21:26.625Z,25.10
2023-02-23T02:24:19.471Z,23.20
2023-02-23T02:27:00.786Z,23.30
2023-02-23T02:30:03.205Z,23.80
2023-02-23T02:32:49.533Z,28.30
2023-02-23T02:35:42.124Z,27.90
2023-02-23T02:38:54.035Z,23.50
2023-02-23T02:41:44.933Z,25.60
2023-02-23T02:44:27.742Z,32.70
2023-02-23T02:47:04.829Z,33.80
2023-02-23T02:49:43.825Z,22.30
2023-02-23T02:52:25.235Z,28.50
2023-02-23T02:54:59.542Z,37.40
2023-02-23T02:57:30.030Z,25.70
2023-02-23T03:00:16.995Z,20.00
2023-02-23T03:03:05.912Z,23.90
2023-02-23T03:06:04.463Z,26.10
2023-02-23T03:09:17.318Z,20.00
2023-02-23T03:12:16.561Z,25.80
2023-02-23T03:15:19.046Z,27.10
2023-02-23T03:18:10.404Z,27.30
2023-02-23T03:21:06.565Z,25.90
2023-02-23T03:24:15.074Z,22.20
2023-02-23T03:27:11.476Z,23.20
2023-02-23T03:30:18.779Z,24.30
2023-02-23T03:33:07.883Z,23.80
2023-02-23T03:36:38.224Z,25.40
2023-02-23T03:39:31.408Z,27.50
2023-02-23T03:42:23.475Z,23.70
2023-02-23T03:45:13.290Z,26.80
2023-02-23T03:48:02.053Z,29.20
2023-02-23T03:51:00.712Z,27.30
2023-02-23T03:53:58.173Z,23.80
2023-02-23T03:56:48.925Z,26.90
2023-02-23T03:59:40.990Z,29.20
2023-02-23T04:02:29.747Z,26.60
2023-02-23T04:05:20.570Z,26.80
2023-02-23T04:08:12.662Z,22.20
2023-02-23T04:11:08.218Z,22.70
2023-02-23T04:13:38.935Z,29.50
2023-02-23T04:16:09.838Z,24.40
2023-02-23T04:18:40.373Z,21.70
2023-02-23T04:21:10.244Z,20.80
2023-02-23T04:23:42.732Z,24.80
2023-02-23T04:26:11.265Z,24.80
2023-02-23T04:28:39.702Z,23.50
2023-02-23T04:31:08.162Z,25.20
2023-02-23T04:33:38.994Z,27.80
2023-02-23T04:36:08.211Z,29.10
2023-02-23T04:38:36.753Z,40.40
2023-02-23T04:41:05.219Z,26.20
2023-02-23T04:43:33.656Z,31.80
2023-02-23T04:46:03.613Z,36.10
2023-02-23T04:48:35.802Z,40.00
2023-02-23T04:51:06.082Z,31.90
2023-02-23T04:53:34.560Z,35.40
2023-02-23T04:56:02.885Z,32.00
2023-02-23T04:58:31.445Z,26.20
2023-02-23T05:01:06.690Z,50.90
2023-02-23T05:03:36.316Z,50.00
2023-02-23T05:06:12.596Z,50.30
2023-02-23T05:08:44.030Z,45.40
2023-02-23T05:11:20.607Z,43.10
2023-02-23T05:13:49.187Z,41.40
2023-02-23T05:16:21.041Z,44.20
2023-02-23T05:18:56.459Z,37.60
2023-02-23T05:21:37.018Z,36.10
2023-02-23T05:26:37.391Z,35.00
2023-02-23T05:29:07.157Z,44.40
2023-02-23T05:31:35.752Z,40.10
2023-02-23T05:34:13.448Z,45.80
2023-02-23T05:36:46.009Z,41.00
2023-02-23T05:39:14.383Z,38.30
2023-02-23T05:41:47.149Z,42.90
2023-02-23T05:44:15.711Z,48.90
2023-02-23T05:46:50.587Z,46.60
2023-02-23T05:49:20.249Z,47.70
2023-02-23T05:51:49.692Z,46.20
2023-02-23T05:54:17.992Z,48.40
2023-02-23T05:56:46.685Z,42.90
2023-02-23T05:59:14.831Z,38.60
2023-02-23T06:01:43.138Z,52.50
2023-02-23T06:04:11.299Z,48.80
2023-02-23T06:06:40.155Z,40.00
2023-02-23T06:09:08.491Z,46.50
2023-02-23T06:11:37.114Z,49.10
2023-02-23T06:14:05.172Z,46.60
2023-02-23T06:16:33.354Z,46.60
2023-02-23T06:19:01.585Z,55.70
2023-02-23T06:21:31.247Z,50.20
2023-02-23T06:24:01.282Z,47.40
2023-02-23T06:26:30.001Z,49.30
2023-02-23T06:28:58.143Z,48.00
2023-02-23T06:31:27.467Z,39.70
2023-02-23T06:33:56.326Z,47.60
2023-02-23T06:36:25.006Z,47.30
2023-02-23T06:38:58.109Z,37.80
2023-02-23T06:41:27.415Z,57.70
2023-02-23T06:43:55.997Z,48.20
2023-02-23T06:46:25.167Z,52.70
2023-02-23T06:48:57.634Z,56.30
2023-02-23T06:51:26.589Z,50.90
2023-02-23T06:53:55.214Z,48.20
2023-02-23T06:56:25.687Z,54.30
2023-02-23T06:58:54.318Z,44.60
2023-02-23T07:01:22.917Z,51.60
2023-02-23T07:03:51.701Z,47.20
2023-02-23T07:06:20.410Z,51.80
2023-02-23T07:08:49.659Z,44.80
2023-02-23T07:11:19.888Z,43.30
2023-02-23T07:13:49.157Z,46.40
2023-02-23T07:16:20.298Z,48.90
2023-02-23T07:18:49.427Z,42.00
2023-02-23T07:21:18.326Z,56.20
2023-02-23T07:23:49.970Z,56.80
2023-02-23T07:26:18.800Z,46.60
2023-02-23T07:28:47.223Z,50.70
2023-02-23T07:31:16.149Z,42.50
2023-02-23T07:33:45.950Z,70.10
2023-02-23T07:36:14.787Z,51.90
2023-02-23T07:38:43.284Z,39.70
2023-02-23T07:41:11.846Z,47.20
2023-02-23T07:43:40.352Z,41.90
2023-02-23T07:46:09.396Z,47.70
2023-02-23T07:48:42.785Z,52.50
2023-02-23T07:51:13.601Z,50.60
2023-02-23T07:53:44.944Z,37.00
2023-02-23T07:56:15.222Z,42.20
2023-02-23T07:58:45.096Z,36.20
2023-02-23T08:01:17.958Z,37.80
2023-02-23T08:03:51.305Z,42.30
2023-02-23T08:06:20.903Z,33.50
2023-02-23T08:08:50.137Z,41.10
2023-02-23T08:11:19.875Z,37.50
2023-02-23T08:13:49.666Z,38.00
2023-02-23T08:16:18.783Z,39.40
2023-02-23T08:18:48.714Z,47.80
2023-02-23T08:21:18.045Z,45.40
2023-02-23T08:23:46.612Z,43.80
2023-02-23T08:26:15.702Z,34.80
2023-02-23T08:28:46.060Z,44.20
2023-02-23T08:31:21.952Z,38.20
2023-02-23T08:33:52.474Z,33.30
2023-02-23T08:36:21.634Z,34.20
2023-02-23T08:38:50.949Z,38.80
2023-02-23T08:41:19.757Z,40.20
2023-02-23T08:43:49.369Z,40.20
2023-02-23T08:46:20.463Z,32.50
2023-02-23T08:48:49.866Z,41.80
2023-02-23T08:51:19.279Z,50.20
2023-02-23T08:53:48.633Z,29.90
2023-02-23T08:56:17.896Z,31.70
2023-02-23T08:58:47.776Z,33.00
2023-02-23T09:01:22.469Z,29.20
2023-02-23T09:06:25.514Z,47.90
2023-02-23T09:08:56.410Z,35.90
2023-02-23T09:11:27.059Z,35.60
2023-02-23T09:13:56.648Z,34.80
2023-02-23T09:16:25.661Z,41.20
2023-02-23T09:18:55.750Z,35.40
2023-02-23T09:21:28.733Z,35.00
2023-02-23T09:24:00.067Z,34.90
2023-02-23T09:26:29.621Z,34.00
2023-02-23T09:29:01.765Z,39.90
2023-02-23T09:31:32.794Z,29.30
2023-02-23T09:34:04.320Z,32.30
2023-02-23T09:36:33.028Z,39.10
2023-02-23T09:39:03.125Z,34.40
2023-02-23T09:41:54.267Z,49.70
2023-02-23T09:44:59.316Z,35.80
2023-02-23T09:47:53.217Z,68.20
2023-02-23T09:50:26.198Z,58.30
2023-02-23T09:53:11.107Z,30.70
2023-02-23T09:55:43.675Z,20.50
2023-02-23T09:58:26.218Z,32.30
2023-02-23T10:01:10.205Z,39.40
2023-02-23T10:03:50.336Z,43.50
2023-02-23T10:06:21.467Z,19.00
2023-02-23T10:09:28.381Z,18.50
2023-02-23T10:12:10.347Z,29.00
2023-02-23T10:15:19.033Z,45.70
2023-02-23T10:18:03.272Z,34.10
2023-02-23T10:21:30.027Z,30.40
2023-02-23T10:24:04.129Z,33.50
2023-02-23T10:26:49.908Z,31.10
2023-02-23T10:31:59.230Z,31.10
2023-02-23T10:34:29.484Z,32.90
2023-02-23T10:37:00.230Z,32.60
2023-02-23T10:39:32.076Z,25.60
2023-02-23T10:42:06.069Z,37.60
2023-02-23T10:44:38.406Z,24.50
2023-02-23T10:47:17.304Z,28.70
2023-02-23T10:49:49.226Z,19.00
2023-02-23T10:52:41.700Z,21.60
2023-02-23T10:55:26.416Z,16.40
2023-02-23T10:58:20.703Z,13.40
2023-02-23T11:00:53.967Z,28.10
2023-02-23T11:03:36.370Z,28.50
2023-02-23T11:06:05.547Z,14.40
2023-02-23T11:08:37.213Z,22.60
2023-02-23T11:11:21.124Z,20.60
2023-02-23T11:13:51.544Z,18.60
2023-02-23T11:16:24.549Z,13.90
2023-02-23T11:19:05.710Z,18.10
2023-02-23T11:21:39.135Z,15.00
2023-02-23T11:24:24.151Z,15.20
2023-02-23T11:26:58.202Z,21.60
2023-02-23T11:29:44.165Z,15.50
2023-02-23T11:32:19.825Z,26.20
2023-02-23T11:35:16.144Z,17.50
2023-02-23T11:37:45.546Z,20.10
2023-02-23T11:40:22.944Z,18.00
2023-02-23T11:43:17.021Z,23.20
2023-02-23T11:45:49.461Z,19.80
2023-02-23T11:48:27.598Z,15.40
2023-02-23T11:50:57.532Z,19.70
2023-02-23T11:53:32.640Z,17.20
2023-02-23T11:56:08.507Z,12.60
2023-02-23T11:58:56.649Z,14.00
2023-02-23T12:01:47.310Z,16.50
2023-02-23T12:04:33.531Z,18.50
2023-02-23T12:07:24.464Z,19.90
2023-02-23T12:10:03.801Z,10.80
2023-02-23T12:12:40.746Z,14.70
2023-02-23T12:15:48.490Z,24.70
2023-02-23T12:18:46.794Z,25.60
2023-02-23T12:21:20.355Z,18.30
2023-02-23T12:23:52.945Z,17.40
2023-02-23T12:26:23.712Z,11.60
2023-02-23T12:29:05.396Z,18.30
2023-02-23T12:31:54.277Z,15.40
2023-02-23T12:34:33.973Z,18.70
2023-02-23T12:37:40.471Z,17.60
2023-02-23T12:40:24.559Z,19.00
2023-02-23T12:43:09.250Z,20.70
2023-02-23T12:46:08.437Z,16.10
2023-02-23T12:48:50.362Z,24.30
2023-02-23T12:51:21.880Z,16.40
2023-02-23T12:53:50.257Z,17.20
2023-02-23T12:56:49.502Z,16.00
2023-02-23T12:59:49.385Z,18.20
2023-02-23T13:02:30.147Z,13.90
2023-02-23T13:05:15.789Z,15.90
2023-02-23T13:08:13.581Z,18.40
2023-02-23T13:10:56.195Z,22.30
2023-02-23T13:13:51.147Z,12.50
2023-02-23T13:16:44.534Z,15.30
2023-02-23T13:19:22.394Z,22.80
2023-02-23T13:22:06.585Z,16.50
2023-02-23T13:24:43.551Z,23.80
2023-02-23T13:27:38.277Z,15.40
2023-02-23T13:30:11.835Z,17.50
2023-02-23T13:32:40.622Z,17.50
2023-02-23T13:35:19.375Z,17.00
2023-02-23T13:38:13.154Z,16.50
2023-02-23T13:40:51.404Z,59.60
2023-02-23T13:43:30.388Z,22.90
2023-02-23T13:46:31.721Z,25.90
2023-02-23T13:49:04.492Z,18.30
2023-02-23T13:51:36.003Z,17.60
2023-02-23T13:54:24.905Z,16.70
2023-02-23T13:57:01.562Z,17.30
2023-02-23T13:59:37.842Z,26.60
2023-02-23T14:02:41.268Z,28.40
2023-02-23T14:05:21.324Z,16.60
2023-02-23T14:07:54.302Z,23.20
2023-02-23T14:10:30.436Z,20.50
2023-02-23T14:13:14.078Z,22.00
2023-02-23T14:15:53.890Z,21.10
2023-02-23T14:18:22.342Z,22.30
2023-02-23T14:21:20.578Z,18.80
2023-02-23T14:23:54.659Z,22.00
2023-02-23T14:26:29.485Z,18.50
2023-02-23T14:29:20.448Z,19.50
2023-02-23T14:32:21.315Z,19.00
2023-02-23T14:34:59.393Z,20.20
2023-02-23T14:37:32.305Z,15.00
2023-02-23T14:40:14.126Z,16.90
2023-02-23T14:42:48.000Z,16.10
2023-02-23T14:45:27.437Z,20.10
2023-02-23T14:48:02.582Z,15.50
2023-02-23T14:50:35.306Z,20.60
2023-02-23T14:53:09.928Z,17.80
2023-02-23T14:55:43.618Z,22.90
2023-02-23T14:58:26.344Z,18.60
2023-02-23T15:00:55.396Z,18.30
2023-02-23T15:03:24.122Z,22.60
2023-02-23T15:06:02.426Z,26.50
2023-02-23T15:08:34.125Z,22.10
2023-02-23T15:11:13.532Z,38.60
2023-02-23T15:13:50.554Z,16.60
2023-02-23T15:16:28.625Z,16.20
2023-02-23T15:19:00.712Z,20.30
2023-02-23T15:21:29.695Z,17.70
2023-02-23T15:24:13.811Z,21.40
2023-02-23T15:26:43.973Z,23.30
2023-02-23T15:29:22.478Z,20.90
2023-02-23T15:31:55.820Z,38.20
2023-02-23T15:34:30.875Z,25.60
2023-02-23T15:37:38.086Z,22.20
2023-02-23T15:40:15.165Z,21.80
2023-02-23T15:42:51.423Z,24.00
2023-02-23T15:45:35.209Z,20.60
2023-02-23T15:48:07.958Z,37.40
2023-02-23T15:50:42.794Z,25.40
2023-02-23T15:53:22.762Z,23.00
2023-02-23T15:56:03.192Z,33.50
2023-02-23T15:58:42.050Z,32.50
2023-02-23T16:01:29.767Z,24.70
2023-02-23T16:04:07.484Z,21.70
2023-02-23T16:06:41.976Z,30.80
2023-02-23T16:09:24.416Z,21.10
2023-02-23T16:11:55.589Z,25.60
2023-02-23T16:14:25.608Z,22.60
2023-02-23T16:17:10.516Z,25.10
2023-02-23T16:19:42.102Z,30.40
2023-02-23T16:22:22.842Z,26.30
2023-02-23T16:25:01.460Z,32.40
2023-02-23T16:27:30.802Z,45.80
2023-02-23T16:30:25.165Z,34.80
2023-02-23T16:33:24.698Z,57.70
2023-02-23T16:36:08.432Z,33.30
2023-02-23T16:39:01.830Z,27.50
2023-02-23T16:41:34.889Z,28.80
2023-02-23T16:44:06.114Z,37.20
2023-02-23T16:47:02.124Z,35.50
2023-02-23T16:49:31.622Z,29.10
2023-02-23T16:52:01.951Z,38.10
2023-02-23T16:54:30.814Z,31.80
2023-02-23T16:56:59.672Z,36.20
2023-02-23T16:59:29.110Z,34.10
2023-02-23T17:01:57.701Z,31.40
2023-02-23T17:04:26.891Z,31.90
2023-02-23T17:06:58.018Z,38.40
2023-02-23T17:09:27.713Z,39.40
2023-02-23T17:11:57.994Z,33.40
2023-02-23T17:14:28.776Z,25.20
2023-02-23T17:16:57.457Z,29.90
2023-02-23T17:19:26.300Z,51.00
2023-02-23T17:21:54.508Z,30.90
2023-02-23T17:24:26.316Z,34.00
2023-02-23T17:26:55.687Z,30.30
2023-02-23T17:29:24.995Z,32.10
2023-02-23T17:31:53.771Z,28.70
2023-02-23T17:34:23.624Z,57.40
2023-02-23T17:36:52.215Z,34.90
2023-02-23T17:39:20.680Z,39.80
2023-02-23T17:41:49.393Z,44.10
2023-02-23T17:44:17.712Z,50.20
2023-02-23T17:46:46.033Z,44.00
2023-02-23T17:49:14.358Z,44.40
2023-02-23T17:51:42.645Z,42.50
2023-02-23T17:54:10.967Z,49.10
2023-02-23T17:56:39.609Z,49.30
2023-02-23T17:59:07.843Z,49.80
2023-02-23T18:01:36.134Z,77.90
2023-02-23T18:04:04.804Z,57.60
2023-02-23T18:06:33.157Z,64.60
2023-02-23T18:09:01.439Z,65.30
2023-02-23T18:11:29.602Z,48.00
2023-02-23T18:13:57.783Z,59.60
2023-02-23T18:16:26.468Z,59.80
2023-02-23T18:18:57.662Z,84.80
2023-02-23T18:21:26.106Z,71.80
2023-02-23T18:23:54.926Z,62.00
2023-02-23T18:26:24.434Z,55.50
2023-02-23T18:28:54.364Z,54.50
2023-02-23T18:31:25.655Z,73.30
2023-02-23T18:33:54.828Z,59.80
2023-02-23T18:36:30.036Z,57.30
2023-02-23T18:38:59.472Z,49.20
2023-02-23T18:41:31.121Z,53.80
2023-02-23T18:44:01.809Z,52.80
2023-02-23T18:46:31.364Z,49.30
2023-02-23T18:49:00.394Z,48.80
2023-02-23T18:51:29.016Z,63.10
2023-02-23T18:53:57.905Z,59.30
2023-02-23T18:56:28.418Z,54.20
2023-02-23T18:58:59.964Z,58.70
2023-02-23T19:01:31.315Z,68.20
2023-02-23T19:04:02.715Z,63.70
2023-02-23T19:06:32.318Z,70.30
2023-02-23T19:09:04.361Z,58.80
2023-02-23T19:11:34.625Z,60.90
2023-02-23T19:14:08.919Z,59.10
2023-02-23T19:19:08.710Z,59.20
2023-02-23T19:21:38.346Z,75.30
2023-02-23T19:24:07.648Z,60.40
2023-02-23T19:26:38.380Z,60.50
2023-02-23T19:29:07.068Z,85.70
2023-02-23T19:31:37.576Z,64.00
2023-02-23T19:34:09.076Z,64.00
2023-02-23T19:36:37.989Z,62.80
2023-02-23T19:39:10.954Z,62.70
2023-02-23T19:41:40.761Z,65.40
2023-02-23T19:44:10.356Z,53.50
2023-02-23T19:46:40.205Z,61.80
2023-02-23T19:49:08.271Z,63.60
2023-02-23T19:51:36.713Z,60.90
2023-02-23T19:54:06.702Z,67.40
2023-02-23T19:56:35.486Z,66.30
2023-02-23T19:59:04.910Z,59.80
2023-02-23T20:01:33.478Z,60.00
2023-02-23T20:04:02.463Z,62.60
2023-02-23T20:06:38.041Z,67.40
2023-02-23T20:09:07.781Z,70.30
2023-02-23T20:11:36.934Z,73.00
2023-02-23T20:14:08.251Z,83.40
2023-02-23T20:16:37.331Z,71.50
2023-02-23T20:19:07.879Z,74.60
2023-02-23T20:21:36.947Z,66.00
2023-02-23T20:24:05.800Z,81.90
2023-02-23T20:26:37.403Z,68.40
2023-02-23T20:29:11.169Z,76.60
2023-02-23T20:31:42.117Z,68.40
2023-02-23T20:34:12.333Z,68.40
2023-02-23T20:36:40.574Z,59.60
2023-02-23T20:39:11.107Z,65.30
2023-02-23T20:41:43.558Z,63.90
2023-02-23T20:44:13.986Z,67.50
2023-02-23T20:46:44.449Z,64.10
2023-02-23T20:49:13.458Z,62.20
2023-02-23T20:51:45.125Z,71.60
2023-02-23T20:54:15.493Z,65.20
2023-02-23T20:56:45.440Z,70.30
2023-02-23T20:59:14.086Z,82.80
2023-02-23T21:01:47.295Z,73.40
2023-02-23T21:04:16.569Z,80.50
2023-02-23T21:06:44.765Z,78.80
2023-02-23T21:09:18.082Z,73.80
2023-02-23T21:11:48.382Z,69.80
2023-02-23T21:14:17.620Z,70.80
2023-02-23T21:16:46.713Z,69.80
2023-02-23T21:19:17.681Z,78.10
2023-02-23T21:21:51.395Z,75.60
2023-02-23T21:24:21.371Z,76.60
2023-02-23T21:26:50.166Z,68.50
2023-02-23T21:29:18.778Z,73.60
2023-02-23T21:31:47.270Z,69.40
2023-02-23T21:34:18.957Z,71.20
2023-02-23T21:36:48.566Z,62.30
2023-02-23T21:39:16.867Z,67.50
2023-02-23T21:41:45.227Z,67.60
2023-02-23T21:44:13.983Z,66.00
2023-02-23T21:46:42.733Z,70.00
2023-02-23T21:49:11.040Z,67.40
2023-02-23T21:51:42.200Z,67.30
2023-02-23T21:54:11.205Z,61.50
2023-02-23T21:56:39.506Z,64.00
2023-02-23T21:59:11.004Z,72.30
2023-02-23T22:01:41.125Z,68.60
2023-02-23T22:04:13.768Z,77.30
2023-02-23T22:06:45.172Z,66.70
2023-02-23T22:09:16.654Z,72.30
2023-02-23T22:11:47.494Z,71.80
2023-02-23T22:14:18.913Z,68.80
2023-02-23T22:16:47.971Z,73.90
2023-02-23T22:19:18.575Z,69.80
2023-02-23T22:21:50.207Z,64.20
2023-02-23T22:24:19.134Z,71.60
2023-02-23T22:26:54.440Z,63.50
2023-02-23T22:29:24.956Z,58.60
2023-02-23T22:31:53.435Z,71.90
2023-02-23T22:34:22.130Z,54.00
2023-02-23T22:36:50.783Z,58.30
2023-02-23T22:39:19.237Z,55.30
2023-02-23T22:41:48.323Z,59.70
2023-02-23T22:44:21.652Z,61.00
2023-02-23T22:46:50.582Z,71.20
2023-02-23T22:49:20.694Z,61.60
2023-02-23T22:51:50.836Z,63.10
2023-02-23T22:54:20.770Z,62.00
2023-02-23T22:56:49.397Z,60.10
2023-02-23T22:59:20.757Z,61.90
2023-02-23T23:01:50.629Z,62.10
2023-02-23T23:04:22.204Z,61.90
2023-02-23T23:06:50.866Z,61.60
2023-02-23T23:09:21.467Z,60.40
2023-02-23T23:11:52.821Z,61.70
2023-02-23T23:14:23.359Z,61.60
2023-02-23T23:16:51.785Z,65.70
2023-02-23T23:19:24.412Z,64.90
2023-02-23T23:21:55.552Z,65.70
2023-02-23T23:24:25.171Z,52.90
2023-02-23T23:26:55.779Z,54.00
2023-02-23T23:29:26.180Z,58.20
2023-02-23T23:31:57.172Z,56.30
2023-02-23T23:34:25.937Z,55.70
2023-02-23T23:36:55.594Z,63.20
2023-02-23T23:39:26.393Z,58.60
2023-02-23T23:41:54.928Z,57.10
2023-02-23T23:44:29.668Z,56.80
2023-02-23T23:46:58.672Z,53.60
2023-02-23T23:49:27.320Z,57.80
2023-02-23T23:51:57.047Z,66.10
2023-02-23T23:54:31.185Z,63.90
2023-02-23T23:57:04.029Z,63.70
2023-02-23T23:59:34.403Z,66.90
